createdAt,value
2022-08-08T00:00:50.375Z,50.83
2022-08-08T00:02:37.128Z,52.57
2022-08-08T00:05:17.257Z,52.13
2022-08-08T00:07:45.089Z,53.77
2022-08-08T00:10:22.281Z,52.38
2022-08-08T00:13:10.174Z,51.90
2022-08-08T00:15:56.858Z,52.90
2022-08-08T00:18:50.350Z,53.93
2022-08-08T00:21:24.621Z,54.49
2022-08-08T00:23:59.420Z,55.42
2022-08-08T00:26:33.238Z,56.49
2022-08-08T00:29:17.574Z,54.71
2022-08-08T00:32:34.458Z,56.47
2022-08-08T00:35:40.999Z,54.30
2022-08-08T00:38:31.523Z,55.12
2022-08-08T00:41:54.466Z,54.15
2022-08-08T00:44:21.965Z,56.11
2022-08-08T00:47:23.055Z,54.79
2022-08-08T00:50:10.449Z,54.71
2022-08-08T00:53:15.543Z,54.78
2022-08-08T00:56:16.373Z,57.27
2022-08-08T00:58:54.119Z,56.74
2022-08-08T01:01:38.421Z,58.21
2022-08-08T01:04:20.857Z,55.66
2022-08-08T01:07:34.772Z,53.51
2022-08-08T01:10:55.248Z,55.14
2022-08-08T01:13:52.889Z,56.78
2022-08-08T01:16:58.729Z,54.39
2022-08-08T01:20:01.771Z,54.67
2022-08-08T01:23:55.078Z,56.13
2022-08-08T01:26:49.258Z,55.84
2022-08-08T01:29:35.380Z,55.83
2022-08-08T01:32:36.678Z,55.03
2022-08-08T01:35:32.818Z,54.85
2022-08-08T01:38:15.178Z,53.58
2022-08-08T01:41:16.162Z,55.10
2022-08-08T01:43:54.354Z,54.73
2022-08-08T01:46:47.428Z,53.36
2022-08-08T01:49:47.799Z,57.26
2022-08-08T01:53:28.804Z,58.47
2022-08-08T01:56:28.109Z,56.38
2022-08-08T01:58:50.830Z,56.94
2022-08-08T02:01:28.056Z,54.00
2022-08-08T02:04:19.778Z,53.47
2022-08-08T02:06:54.284Z,52.78
2022-08-08T02:10:01.310Z,54.38
2022-08-08T02:12:32.228Z,54.41
2022-08-08T02:15:12.447Z,53.22
2022-08-08T02:17:53.438Z,54.97
2022-08-08T02:21:00.877Z,56.79
2022-08-08T02:23:31.933Z,55.82
2022-08-08T02:26:09.992Z,53.36
2022-08-08T02:29:18.672Z,54.44
2022-08-08T02:32:05.510Z,53.17
2022-08-08T02:35:08.041Z,54.45
2022-08-08T02:37:58.534Z,55.30
2022-08-08T02:40:57.758Z,56.80
2022-08-08T02:44:38.391Z,56.86
2022-08-08T02:46:50.698Z,54.33
2022-08-08T02:49:47.923Z,55.51
2022-08-08T02:52:50.688Z,55.78
2022-08-08T02:56:01.679Z,55.67
2022-08-08T02:58:44.364Z,54.70
2022-08-08T03:02:07.954Z,55.34
2022-08-08T03:05:09.342Z,55.35
2022-08-08T03:07:57.922Z,55.49
2022-08-08T03:11:31.805Z,56.43
2022-08-08T03:16:03.866Z,55.33
2022-08-08T03:17:39.331Z,58.31
2022-08-08T03:20:10.389Z,58.66
2022-08-08T03:22:56.847Z,57.33
2022-08-08T03:25:33.929Z,56.96
2022-08-08T03:28:08.168Z,56.02
2022-08-08T03:30:36.580Z,55.92
2022-08-08T03:33:54.994Z,56.14
2022-08-08T03:36:13.588Z,59.46
2022-08-08T03:38:57.899Z,57.39
2022-08-08T03:42:28.066Z,56.44
2022-08-08T03:44:25.767Z,55.12
2022-08-08T03:46:54.587Z,56.87
2022-08-08T03:49:56.586Z,54.94
2022-08-08T03:52:13.101Z,57.21
2022-08-08T03:55:02.268Z,58.51
2022-08-08T03:58:30.461Z,56.70
2022-08-08T04:00:27.039Z,57.91
2022-08-08T04:03:01.694Z,55.82
2022-08-08T04:05:35.520Z,55.07
2022-08-08T04:08:06.509Z,55.51
2022-08-08T04:10:36.104Z,58.39
2022-08-08T04:13:17.866Z,55.04
2022-08-08T04:16:03.220Z,57.21
2022-08-08T04:18:32.766Z,55.37
2022-08-08T04:21:00.847Z,56.61
2022-08-08T04:24:04.735Z,55.41
2022-08-08T04:26:18.068Z,55.88
2022-08-08T04:28:47.538Z,56.36
2022-08-08T04:31:56.663Z,55.76
2022-08-08T04:34:10.669Z,54.36
2022-08-08T04:36:39.869Z,54.55
2022-08-08T04:40:04.670Z,57.43
2022-08-08T04:41:56.461Z,56.33
2022-08-08T04:44:26.868Z,57.16
2022-08-08T04:46:55.427Z,58.14
2022-08-08T04:49:28.727Z,59.74
2022-08-08T04:51:57.757Z,59.45
2022-08-08T04:54:38.585Z,56.70
2022-08-08T04:57:09.840Z,56.65
2022-08-08T04:59:42.692Z,56.35
2022-08-08T05:02:13.783Z,54.34
2022-08-08T05:04:44.327Z,55.77
2022-08-08T05:07:14.965Z,55.90
2022-08-08T05:09:43.413Z,58.98
2022-08-08T05:12:21.058Z,56.19
2022-08-08T05:14:52.319Z,54.25
2022-08-08T05:17:21.519Z,52.93
2022-08-08T05:20:09.375Z,54.71
2022-08-08T05:22:38.398Z,53.92
2022-08-08T05:25:07.669Z,52.62
2022-08-08T05:27:41.408Z,54.10
2022-08-08T05:30:13.489Z,52.97
2022-08-08T05:32:42.573Z,52.76
2022-08-08T05:35:13.563Z,54.62
2022-08-08T05:37:52.000Z,55.24
2022-08-08T05:40:28.279Z,55.43
2022-08-08T05:43:15.428Z,54.19
2022-08-08T05:46:02.974Z,53.30
2022-08-08T05:48:34.655Z,53.15
2022-08-08T05:51:14.731Z,52.25
2022-08-08T05:54:26.148Z,53.91
2022-08-08T05:56:42.205Z,53.14
2022-08-08T05:59:58.802Z,51.49
2022-08-08T06:02:43.273Z,51.20
2022-08-08T06:05:24.409Z,52.69
2022-08-08T06:08:09.036Z,51.99
2022-08-08T06:10:40.876Z,50.41
2022-08-08T06:13:09.722Z,50.58
2022-08-08T06:15:51.051Z,51.82
2022-08-08T06:18:25.586Z,51.25
2022-08-08T06:20:56.484Z,50.61
2022-08-08T06:23:49.119Z,50.12
2022-08-08T06:26:38.605Z,47.91
2022-08-08T06:29:26.261Z,51.04
2022-08-08T06:32:10.778Z,50.19
2022-08-08T06:34:56.352Z,48.87
2022-08-08T06:37:40.007Z,50.10
2022-08-08T06:40:15.936Z,52.96
2022-08-08T06:43:06.709Z,53.39
2022-08-08T06:45:39.369Z,51.66
2022-08-08T06:48:10.118Z,49.14
2022-08-08T06:50:39.568Z,49.56
2022-08-08T06:53:17.466Z,50.48
2022-08-08T06:56:02.697Z,52.08
2022-08-08T06:58:33.693Z,49.77
2022-08-08T07:01:11.551Z,48.02
2022-08-08T07:04:40.606Z,47.47
2022-08-08T07:06:51.213Z,47.25
2022-08-08T07:09:21.465Z,43.40
2022-08-08T07:11:52.139Z,41.77
2022-08-08T07:14:28.156Z,40.07
2022-08-08T07:17:14.506Z,39.58
2022-08-08T07:19:55.999Z,40.88
2022-08-08T07:22:39.315Z,41.88
2022-08-08T07:25:10.551Z,43.30
2022-08-08T07:28:01.811Z,43.34
2022-08-08T07:30:31.951Z,42.61
2022-08-08T07:33:01.561Z,43.30
2022-08-08T07:35:31.613Z,41.18
2022-08-08T07:38:10.429Z,41.55
2022-08-08T07:40:50.563Z,41.82
2022-08-08T07:43:23.244Z,41.66
2022-08-08T07:46:23.162Z,41.78
2022-08-08T07:48:54.200Z,40.62
2022-08-08T07:51:45.363Z,40.72
2022-08-08T07:54:27.131Z,40.83
2022-08-08T07:57:21.153Z,42.82
2022-08-08T08:00:02.170Z,40.38
2022-08-08T08:02:39.647Z,37.07
2022-08-08T08:05:33.398Z,40.18
2022-08-08T08:08:20.522Z,38.19
2022-08-08T08:10:56.947Z,33.97
2022-08-08T08:13:42.957Z,34.23
2022-08-08T08:16:25.372Z,33.25
2022-08-08T08:18:58.129Z,35.49
2022-08-08T08:21:35.431Z,36.20
2022-08-08T08:24:13.972Z,32.71
2022-08-08T08:26:46.853Z,33.32
2022-08-08T08:29:20.929Z,32.57
2022-08-08T08:31:57.493Z,31.77
2022-08-08T08:34:32.414Z,32.62
2022-08-08T08:37:07.513Z,32.85
2022-08-08T08:40:00.591Z,32.43
2022-08-08T08:42:31.924Z,32.07
2022-08-08T08:45:10.404Z,35.18
2022-08-08T08:47:53.285Z,33.81
2022-08-08T08:50:33.415Z,36.41
2022-08-08T08:53:27.833Z,37.00
2022-08-08T08:56:02.109Z,37.56
2022-08-08T08:58:37.915Z,37.13
2022-08-08T09:01:10.181Z,37.89
2022-08-08T09:03:47.372Z,38.47
2022-08-08T09:06:28.540Z,37.21
2022-08-08T09:09:19.191Z,38.07
2022-08-08T09:12:02.252Z,38.86
2022-08-08T09:14:35.588Z,39.38
2022-08-08T09:17:17.327Z,39.36
2022-08-08T09:21:56.138Z,41.40
2022-08-08T09:22:41.371Z,41.43
2022-08-08T09:25:10.546Z,41.48
2022-08-08T09:27:55.830Z,40.92
2022-08-08T09:30:29.845Z,40.84
2022-08-08T09:33:12.574Z,39.41
2022-08-08T09:35:48.840Z,40.00
2022-08-08T09:38:53.412Z,39.56
2022-08-08T09:42:14.733Z,39.12
2022-08-08T09:45:04.153Z,39.04
2022-08-08T09:48:11.384Z,40.04
2022-08-08T09:50:32.544Z,40.58
2022-08-08T09:53:23.480Z,42.84
2022-08-08T09:56:04.260Z,41.89
2022-08-08T09:58:41.755Z,40.54
2022-08-08T10:01:14.381Z,42.71
2022-08-08T10:03:55.907Z,41.42
2022-08-08T10:06:29.564Z,41.67
2022-08-08T10:08:58.454Z,41.55
2022-08-08T10:12:27.281Z,41.75
2022-08-08T10:14:34.866Z,43.26
2022-08-08T10:17:57.458Z,43.43
2022-08-08T10:20:00.360Z,41.51
2022-08-08T10:22:30.272Z,41.21
2022-08-08T10:25:05.833Z,40.43
2022-08-08T10:27:42.620Z,42.41
2022-08-08T10:30:16.518Z,43.95
2022-08-08T10:33:00.771Z,40.87
2022-08-08T10:36:07.315Z,41.82
2022-08-08T10:38:20.345Z,43.39
2022-08-08T10:40:53.594Z,43.74
2022-08-08T10:43:22.205Z,44.14
2022-08-08T10:45:56.466Z,43.01
2022-08-08T10:48:38.737Z,43.07
2022-08-08T10:51:24.429Z,47.44
2022-08-08T10:53:59.792Z,47.14
2022-08-08T10:56:35.247Z,46.51
2022-08-08T10:59:14.359Z,46.19
2022-08-08T11:01:54.686Z,46.22
2022-08-08T11:04:29.620Z,49.05
2022-08-08T11:07:07.309Z,48.09
2022-08-08T11:09:35.557Z,48.12
2022-08-08T11:12:14.138Z,49.42
2022-08-08T11:15:02.333Z,48.67
2022-08-08T11:18:00.335Z,48.33
2022-08-08T11:20:28.842Z,47.32
2022-08-08T11:22:59.962Z,46.39
2022-08-08T11:25:52.874Z,46.53
2022-08-08T11:28:29.432Z,48.19
2022-08-08T11:31:00.424Z,47.55
2022-08-08T11:33:51.546Z,47.32
2022-08-08T11:36:17.669Z,47.75
2022-08-08T11:38:55.201Z,48.90
2022-08-08T11:41:27.693Z,50.48
2022-08-08T11:43:57.791Z,51.95
2022-08-08T11:46:30.644Z,53.03
2022-08-08T11:49:07.004Z,53.61
2022-08-08T11:51:40.038Z,54.69
2022-08-08T11:54:31.074Z,55.29
2022-08-08T11:57:35.292Z,57.60
2022-08-08T12:00:09.769Z,56.48
2022-08-08T12:02:50.918Z,57.91
2022-08-08T12:05:33.963Z,56.23
2022-08-08T12:08:02.369Z,56.92
2022-08-08T12:10:33.564Z,56.47
2022-08-08T12:13:10.178Z,54.73
2022-08-08T12:15:46.715Z,53.62
2022-08-08T12:18:26.103Z,54.82
2022-08-08T12:20:56.617Z,54.71
2022-08-08T12:23:42.657Z,53.00
2022-08-08T12:26:27.455Z,54.41
2022-08-08T12:29:41.033Z,54.89
2022-08-08T12:32:20.133Z,55.26
2022-08-08T12:35:04.947Z,53.91
2022-08-08T12:38:01.939Z,51.41
2022-08-08T12:40:56.644Z,51.25
2022-08-08T12:43:46.226Z,54.18
2022-08-08T12:46:26.522Z,53.55
2022-08-08T12:51:59.091Z,55.10
2022-08-08T12:54:36.558Z,55.63
2022-08-08T12:57:14.249Z,52.94
2022-08-08T13:00:05.906Z,52.12
2022-08-08T13:02:51.019Z,51.86
2022-08-08T13:05:26.707Z,51.14
2022-08-08T13:08:22.064Z,50.42
2022-08-08T13:10:56.312Z,50.24
2022-08-08T13:13:35.413Z,50.26
2022-08-08T13:16:25.647Z,48.71
2022-08-08T13:19:01.700Z,49.43
2022-08-08T13:21:53.802Z,48.12
2022-08-08T13:24:39.430Z,48.28
2022-08-08T13:27:17.102Z,48.35
2022-08-08T13:29:53.476Z,50.23
2022-08-08T13:32:25.237Z,49.95
2022-08-08T13:34:58.947Z,49.52
2022-08-08T13:38:04.537Z,49.13
2022-08-08T13:40:26.483Z,50.00
2022-08-08T13:42:56.152Z,47.66
2022-08-08T13:45:26.480Z,48.13
2022-08-08T13:48:02.898Z,49.71
2022-08-08T13:50:48.056Z,47.97
2022-08-08T13:53:36.143Z,49.31
2022-08-08T13:56:11.756Z,48.21
2022-08-08T13:58:56.165Z,48.06
2022-08-08T14:01:41.681Z,48.37
2022-08-08T14:04:22.076Z,48.06
2022-08-08T14:06:50.198Z,47.42
2022-08-08T14:09:29.969Z,48.09
2022-08-08T14:12:00.171Z,48.76
2022-08-08T14:14:40.087Z,47.79
2022-08-08T14:17:22.065Z,48.63
2022-08-08T14:19:57.739Z,49.51
2022-08-08T14:22:44.110Z,50.68
2022-08-08T14:25:15.499Z,51.98
2022-08-08T14:27:59.623Z,50.77
2022-08-08T14:30:34.501Z,52.37
2022-08-08T14:33:03.330Z,52.78
2022-08-08T14:35:43.292Z,51.64
2022-08-08T14:38:34.041Z,54.60
2022-08-08T14:41:14.823Z,54.00
2022-08-08T14:44:11.022Z,54.99
2022-08-08T14:46:40.399Z,55.63
2022-08-08T14:49:20.453Z,54.84
2022-08-08T14:52:08.235Z,56.14
2022-08-08T14:54:49.958Z,54.83
2022-08-08T14:57:18.410Z,54.46
2022-08-08T14:59:50.887Z,55.42
2022-08-08T15:02:25.545Z,56.19
2022-08-08T15:05:10.731Z,55.96
2022-08-08T15:07:41.381Z,56.25
2022-08-08T15:10:12.693Z,56.48
2022-08-08T15:12:41.606Z,57.20
2022-08-08T15:15:10.439Z,57.39
2022-08-08T15:17:40.880Z,57.91
2022-08-08T15:20:14.181Z,57.62
2022-08-08T15:22:44.427Z,55.02
2022-08-08T15:25:17.840Z,55.08
2022-08-08T15:28:03.944Z,54.91
2022-08-08T15:30:45.933Z,53.55
2022-08-08T15:33:20.861Z,54.67
2022-08-08T15:36:03.579Z,55.60
2022-08-08T15:38:31.371Z,56.29
2022-08-08T15:40:59.989Z,55.47
2022-08-08T15:43:35.977Z,56.75
2022-08-08T15:46:04.504Z,58.38
2022-08-08T15:48:32.678Z,57.10
2022-08-08T15:51:06.462Z,57.79
2022-08-08T15:53:40.611Z,57.61
2022-08-08T15:56:20.030Z,56.94
2022-08-08T15:58:49.377Z,57.37
2022-08-08T16:01:18.655Z,57.50
2022-08-08T16:03:51.628Z,55.92
2022-08-08T16:06:27.809Z,54.87
2022-08-08T16:13:00.398Z,54.73
2022-08-08T16:13:03.741Z,54.47
2022-08-08T16:14:36.752Z,54.52
2022-08-08T16:17:06.255Z,54.67
2022-08-08T16:19:59.953Z,54.78
2022-08-08T16:22:30.139Z,54.80
2022-08-08T16:25:00.356Z,54.62
2022-08-08T16:27:35.465Z,54.35
2022-08-08T16:30:10.533Z,54.44
2022-08-08T16:32:42.381Z,53.33
2022-08-08T16:35:10.673Z,53.54
2022-08-08T16:37:47.446Z,52.57
2022-08-08T16:40:19.633Z,53.78
2022-08-08T16:42:51.610Z,56.05
2022-08-08T16:46:37.591Z,54.94
2022-08-08T16:48:13.294Z,53.63
2022-08-08T16:50:41.693Z,53.92
2022-08-08T16:55:03.423Z,54.68
2022-08-08T16:56:00.579Z,54.51
2022-08-08T16:58:31.676Z,53.64
2022-08-08T17:01:10.707Z,54.85
2022-08-08T17:04:00.843Z,57.15
2022-08-08T17:06:39.544Z,57.19
2022-08-08T17:09:14.704Z,57.56
2022-08-08T17:11:48.485Z,57.07
2022-08-08T17:14:27.076Z,57.26
2022-08-08T17:16:58.463Z,57.72
2022-08-08T17:19:30.082Z,57.13
2022-08-08T17:22:01.559Z,57.85
2022-08-08T17:24:31.105Z,58.69
2022-08-08T17:27:01.742Z,61.00
2022-08-08T17:29:33.909Z,60.54
2022-08-08T17:32:05.893Z,61.51
2022-08-08T17:35:52.015Z,60.81
2022-08-08T17:37:27.581Z,63.11
2022-08-08T17:40:05.728Z,63.31
2022-08-08T17:42:47.233Z,64.05
2022-08-08T17:45:23.687Z,64.07
2022-08-08T17:47:54.088Z,64.96
2022-08-08T17:50:23.842Z,65.68
2022-08-08T17:52:57.607Z,64.57
2022-08-08T17:56:06.788Z,63.39
2022-08-08T17:58:15.310Z,63.29
2022-08-08T18:00:43.155Z,65.37
2022-08-08T18:03:23.016Z,65.76
2022-08-08T18:05:50.940Z,65.43
2022-08-08T18:08:24.868Z,64.75
2022-08-08T18:11:16.894Z,65.59
2022-08-08T18:13:46.042Z,67.63
2022-08-08T18:16:20.655Z,64.79
2022-08-08T18:18:56.336Z,64.90
2022-08-08T18:21:59.104Z,63.05
2022-08-08T18:24:21.380Z,63.42
2022-08-08T18:26:56.795Z,63.80
2022-08-08T18:29:34.612Z,63.90
2022-08-08T18:32:08.513Z,64.00
2022-08-08T18:34:37.644Z,64.82
2022-08-08T18:37:09.615Z,66.45
2022-08-08T18:39:39.031Z,68.31
2022-08-08T18:42:16.599Z,68.04
2022-08-08T18:44:54.936Z,67.86
2022-08-08T18:47:26.421Z,67.14
2022-08-08T18:49:57.964Z,67.39
2022-08-08T18:52:36.835Z,66.28
2022-08-08T18:55:10.332Z,66.75
2022-08-08T18:57:44.617Z,64.93
2022-08-08T19:00:16.375Z,64.49
2022-08-08T19:02:55.825Z,65.39
2022-08-08T19:05:32.227Z,65.97
2022-08-08T19:08:24.510Z,64.87
2022-08-08T19:11:01.490Z,65.73
2022-08-08T19:13:52.949Z,66.12
2022-08-08T19:16:20.593Z,66.83
2022-08-08T19:19:00.023Z,66.78
2022-08-08T19:21:33.306Z,67.42
2022-08-08T19:24:05.409Z,67.38
2022-08-08T19:26:35.391Z,65.95
2022-08-08T19:29:07.241Z,66.54
2022-08-08T19:31:35.995Z,66.44
2022-08-08T19:34:30.388Z,66.94
2022-08-08T19:36:59.269Z,65.76
2022-08-08T19:39:30.904Z,67.08
2022-08-08T19:42:05.318Z,67.27
2022-08-08T19:44:45.815Z,66.15
2022-08-08T19:47:15.741Z,67.94
2022-08-08T19:50:00.274Z,66.10
2022-08-08T19:52:34.854Z,66.38
2022-08-08T19:55:12.863Z,67.35
2022-08-08T19:57:44.467Z,67.62
2022-08-08T20:00:29.066Z,67.58
2022-08-08T20:03:00.305Z,67.14
2022-08-08T20:06:13.567Z,66.47
2022-08-08T20:08:30.024Z,66.57
2022-08-08T20:11:00.508Z,68.12
2022-08-08T20:14:34.653Z,66.85
2022-08-08T20:16:18.549Z,65.28
2022-08-08T20:18:52.655Z,64.80
2022-08-08T20:21:25.396Z,65.29
2022-08-08T20:23:57.500Z,66.11
2022-08-08T20:26:30.083Z,64.41
2022-08-08T20:29:04.355Z,64.52
2022-08-08T20:32:08.014Z,63.83
2022-08-08T20:34:30.629Z,63.47
2022-08-08T20:37:00.946Z,62.44
2022-08-08T20:39:39.720Z,61.75
2022-08-08T20:42:28.531Z,62.54
2022-08-08T20:44:58.866Z,61.15
2022-08-08T20:47:26.952Z,60.20
2022-08-08T20:50:05.857Z,60.15
2022-08-08T20:52:33.811Z,60.54
2022-08-08T20:55:01.817Z,60.62
2022-08-08T20:57:47.689Z,59.01
2022-08-08T21:00:19.104Z,60.01
2022-08-08T21:02:48.565Z,57.66
2022-08-08T21:05:21.547Z,57.35
2022-08-08T21:08:36.953Z,57.19
2022-08-08T21:10:40.802Z,56.19
2022-08-08T21:13:09.201Z,56.22
2022-08-08T21:16:05.402Z,55.94
2022-08-08T21:18:27.979Z,57.77
2022-08-08T21:20:55.961Z,56.04
2022-08-08T21:23:58.641Z,57.18
2022-08-08T21:26:12.499Z,57.21
2022-08-08T21:28:40.888Z,57.30
2022-08-08T21:31:23.188Z,57.02
2022-08-08T21:33:52.451Z,57.60
2022-08-08T21:36:28.539Z,57.40
2022-08-08T21:38:57.159Z,55.84
2022-08-08T21:41:28.984Z,58.27
2022-08-08T21:44:12.026Z,59.08
2022-08-08T21:48:05.918Z,58.03
2022-08-08T21:49:30.336Z,57.76
2022-08-08T21:54:17.506Z,59.63
2022-08-08T21:54:53.969Z,60.02
2022-08-08T21:57:42.607Z,59.77
2022-08-08T22:00:14.729Z,61.47
2022-08-08T22:02:44.552Z,60.37
2022-08-08T22:05:14.959Z,61.82
2022-08-08T22:07:48.457Z,59.57
2022-08-08T22:10:32.026Z,60.64
2022-08-08T22:13:17.292Z,59.34
2022-08-08T22:15:58.542Z,59.27
2022-08-08T22:18:35.363Z,60.12
2022-08-08T22:21:13.740Z,60.16
2022-08-08T22:23:49.560Z,59.79
2022-08-08T22:26:29.154Z,59.13
2022-08-08T22:29:13.452Z,59.49
2022-08-08T22:32:01.804Z,58.48
2022-08-08T22:34:32.280Z,57.45
2022-08-08T22:37:00.549Z,56.25
2022-08-08T22:39:46.070Z,57.66
2022-08-08T22:42:27.368Z,55.85
2022-08-08T22:44:59.553Z,56.91
2022-08-08T22:47:34.452Z,57.07
2022-08-08T22:50:21.715Z,55.75
2022-08-08T22:54:17.064Z,55.98
2022-08-08T22:55:58.263Z,57.46
2022-08-08T22:58:32.830Z,56.55
2022-08-08T23:02:01.172Z,55.37
2022-08-08T23:03:54.646Z,56.44
2022-08-08T23:06:27.139Z,56.26
2022-08-08T23:08:58.981Z,55.25
2022-08-08T23:11:30.996Z,55.10
2022-08-08T23:14:21.254Z,55.78
2022-08-08T23:16:57.564Z,55.46
2022-08-08T23:19:30.691Z,55.50
2022-08-08T23:22:04.567Z,57.43
2022-08-08T23:24:41.541Z,56.62
2022-08-08T23:27:37.931Z,57.35
2022-08-08T23:29:59.850Z,58.84
2022-08-08T23:32:27.654Z,59.62
2022-08-08T23:34:58.969Z,61.36
2022-08-08T23:38:02.136Z,60.59
2022-08-08T23:40:16.791Z,57.86
2022-08-08T23:42:51.259Z,57.61
2022-08-08T23:45:19.589Z,59.60
2022-08-08T23:49:08.139Z,58.73
2022-08-08T23:50:57.447Z,61.35
2022-08-08T23:54:01.352Z,62.32
2022-08-08T23:56:14.099Z,65.95
2022-08-08T23:59:00.253Z,66.11
